Temp: 9.3°C   Baro: 1005.6mb
  Wind: 0.9mph   Dir: SW (216°)
  Rain: 0.4mm (0.0mm/hr)
  Sun: 0W/m2  Humidity: 93%

Historic data

Bath Spa Weather Station Historical Data
Daily Summary for December 01, 2022 Units:  Both    English   Metric
Daily Weekly Monthly Yearly Custom
  High: Low: Average:
Temperature: 39.6 °F /  4.2 °C 32.7 °F /  0.4 °C 36.9 °F /  2.7 °C
Dew Point: 38.8 °F /  3.8 °C 32 °F /  0 °C 36 °F /  2.2 °C
Humidity: 97% 95% 96%
Wind Speed: 3.6mph /  5.8km/h - 1.5mph /  2.4km/h
Wind Gust: 8mph /  12.9km/h - -
Wind- - East
Pressure: 30.45 in /  1031 hPa 30.39 in /  1029 hPa -
Precipitation: 0.00 in /  0 mm    
Historical Graphs
 
 
Tabular Data for December 01, 2022
Time Temperature Dew Point Pressure Wind Wind Speed Wind Gust Humidity Rainfall Rate (Hourly) solar
00:09 38.3 °F /  3.5 °C 37 °F /  2.8 °C 30.39in /  1029hPa ESE 1.7mph /  2.7km/h 5mph /  8km/h 95% 0.00in /  0mm 0 W/m2
00:14 38.1 °F /  3.4 °C 36.8 °F /  2.7 °C 30.39in /  1029hPa ESE 1.7mph /  2.7km/h 3mph /  4.8km/h 95% 0.00in /  0mm 0 W/m2
00:19 37.8 °F /  3.2 °C 36.6 °F /  2.6 °C 30.39in /  1029hPa ESE 1.2mph /  1.9km/h 4mph /  6.4km/h 95% 0.00in /  0mm 0 W/m2
00:24 37.6 °F /  3.1 °C 36.3 °F /  2.4 °C 30.39in /  1029hPa ESE 1.7mph /  2.7km/h 3mph /  4.8km/h 95% 0.00in /  0mm 0 W/m2
00:29 37.6 °F /  3.1 °C 36.3 °F /  2.4 °C 30.39in /  1029hPa ESE 1.5mph /  2.4km/h 3mph /  4.8km/h 95% 0.00in /  0mm 0 W/m2
00:34 37.6 °F /  3.1 °C 36.3 °F /  2.4 °C 30.39in /  1029hPa ESE 2mph /  3.2km/h 4mph /  6.4km/h 95% 0.00in /  0mm 0 W/m2
00:39 37.6 °F /  3.1 °C 36.3 °F /  2.4 °C 30.40in /  1029.3hPa ESE 0.2mph /  0.3km/h 3mph /  4.8km/h 95% 0.00in /  0mm 0 W/m2
00:44 37.6 °F /  3.1 °C 36.3 °F /  2.4 °C 30.40in /  1029.3hPa ESE 0.5mph /  0.8km/h 2mph /  3.2km/h 95% 0.00in /  0mm 0 W/m2
00:49 37.3 °F /  2.9 °C 36 °F /  2.2 °C 30.41in /  1029.7hPa Calm   2mph /  3.2km/h 95% 0.00in /  0mm 0 W/m2
00:54 37.2 °F /  2.9 °C 36 °F /  2.2 °C 30.41in /  1029.7hPa ESE 0.5mph /  0.8km/h 2mph /  3.2km/h 95% 0.00in /  0mm 0 W/m2
00:59 37.2 °F /  2.9 °C 36 °F /  2.2 °C 30.41in /  1029.7hPa ESE 0.7mph /  1.1km/h 2mph /  3.2km/h 95% 0.00in /  0mm 0 W/m2
01:04 37.1 °F /  2.8 °C 35.9 °F /  2.2 °C 30.41in /  1029.7hPa ESE 0.4mph /  0.6km/h 1mph /  1.6km/h 95% 0.00in /  0mm 0 W/m2
01:09 36.9 °F /  2.7 °C 35.6 °F /  2 °C 30.41in /  1029.7hPa ESE 0.7mph /  1.1km/h 2mph /  3.2km/h 95% 0.00in /  0mm 0 W/m2
01:14 36.9 °F /  2.7 °C 35.6 °F /  2 °C 30.41in /  1029.7hPa ESE 0.2mph /  0.3km/h 1mph /  1.6km/h 95% 0.00in /  0mm 0 W/m2
01:19 37 °F /  2.8 °C 35.8 °F /  2.1 °C 30.41in /  1029.7hPa ESE 0.4mph /  0.6km/h 1mph /  1.6km/h 95% 0.00in /  0mm 0 W/m2
01:24 37.1 °F /  2.8 °C 35.9 °F /  2.2 °C 30.41in /  1029.7hPa ESE 0.2mph /  0.3km/h 1mph /  1.6km/h 95% 0.00in /  0mm 0 W/m2
01:29 37.2 °F /  2.9 °C 36 °F /  2.2 °C 30.41in /  1029.7hPa ESE 0.2mph /  0.3km/h 1mph /  1.6km/h 95% 0.00in /  0mm 0 W/m2
01:34 37.4 °F /  3 °C 36.1 °F /  2.3 °C 30.41in /  1029.7hPa ESE 0.2mph /  0.3km/h 2mph /  3.2km/h 95% 0.00in /  0mm 0 W/m2
01:39 37.4 °F /  3 °C 36.1 °F /  2.3 °C 30.41in /  1029.7hPa ESE 0.8mph /  1.3km/h 3mph /  4.8km/h 95% 0.00in /  0mm 0 W/m2
01:44 37.2 °F /  2.9 °C 35.9 °F /  2.2 °C 30.41in /  1029.7hPa ESE 2.1mph /  3.4km/h 6mph /  9.7km/h 95% 0.00in /  0mm 0 W/m2
01:49 37 °F /  2.8 °C 35.7 °F /  2.1 °C 30.41in /  1029.7hPa SE 3.2mph /  5.1km/h 6mph /  9.7km/h 95% 0.00in /  0mm 0 W/m2
01:54 36.9 °F /  2.7 °C 35.6 °F /  2 °C 30.40in /  1029.3hPa SE 2.2mph /  3.5km/h 3mph /  4.8km/h 95% 0.00in /  0mm 0 W/m2
01:59 36.9 °F /  2.7 °C 35.6 °F /  2 °C 30.40in /  1029.3hPa SE 1.2mph /  1.9km/h 3mph /  4.8km/h 95% 0.00in /  0mm 0 W/m2
02:04 36.8 °F /  2.7 °C 35.5 °F /  1.9 °C 30.40in /  1029.3hPa SE 2.3mph /  3.7km/h 6mph /  9.7km/h 95% 0.00in /  0mm 0 W/m2
02:09 36.9 °F /  2.7 °C 35.6 °F /  2 °C 30.40in /  1029.3hPa SE 3.5mph /  5.6km/h 7mph /  11.3km/h 95% 0.00in /  0mm 0 W/m2
02:14 36.9 °F /  2.7 °C 35.6 °F /  2 °C 30.40in /  1029.3hPa SE 2.5mph /  4km/h 6mph /  9.7km/h 95% 0.00in /  0mm 0 W/m2
02:19 36.9 °F /  2.7 °C 35.6 °F /  2 °C 30.40in /  1029.3hPa ESE 3.3mph /  5.3km/h 7mph /  11.3km/h 95% 0.00in /  0mm 0 W/m2
02:24 36.9 °F /  2.7 °C 35.6 °F /  2 °C 30.40in /  1029.3hPa ESE 2.5mph /  4km/h 5mph /  8km/h 95% 0.00in /  0mm 0 W/m2
02:29 36.8 °F /  2.7 °C 35.5 °F /  1.9 °C 30.40in /  1029.3hPa ESE 1.7mph /  2.7km/h 4mph /  6.4km/h 95% 0.00in /  0mm 0 W/m2
02:34 36.7 °F /  2.6 °C 35.4 °F /  1.9 °C 30.40in /  1029.3hPa ESE 3mph /  4.8km/h 5mph /  8km/h 95% 0.00in /  0mm 0 W/m2
02:39 36.7 °F /  2.6 °C 35.4 °F /  1.9 °C 30.40in /  1029.3hPa ESE 2.4mph /  3.9km/h 7mph /  11.3km/h 95% 0.00in /  0mm 0 W/m2
02:44 36.7 °F /  2.6 °C 35.4 °F /  1.9 °C 30.40in /  1029.3hPa ESE 2.3mph /  3.7km/h 7mph /  11.3km/h 95% 0.00in /  0mm 0 W/m2
02:49 36.7 °F /  2.6 °C 35.4 °F /  1.9 °C 30.40in /  1029.3hPa ESE 1.9mph /  3.1km/h 4mph /  6.4km/h 95% 0.00in /  0mm 0 W/m2
02:54 36.8 °F /  2.7 °C 35.5 °F /  1.9 °C 30.40in /  1029.3hPa ESE 1.6mph /  2.6km/h 4mph /  6.4km/h 95% 0.00in /  0mm 0 W/m2
02:59 36.8 °F /  2.7 °C 35.5 °F /  1.9 °C 30.40in /  1029.3hPa ESE 0.9mph /  1.4km/h 4mph /  6.4km/h 95% 0.00in /  0mm 0 W/m2
03:04 36.9 °F /  2.7 °C 35.6 °F /  2 °C 30.40in /  1029.3hPa ESE 1.3mph /  2.1km/h 3mph /  4.8km/h 95% 0.00in /  0mm 0 W/m2
03:09 36.8 °F /  2.7 °C 35.5 °F /  1.9 °C 30.40in /  1029.3hPa ESE 1.3mph /  2.1km/h 4mph /  6.4km/h 95% 0.00in /  0mm 0 W/m2
03:14 36.7 °F /  2.6 °C 35.4 °F /  1.9 °C 30.40in /  1029.3hPa ESE 2.1mph /  3.4km/h 5mph /  8km/h 95% 0.00in /  0mm 0 W/m2
03:19 36.7 °F /  2.6 °C 35.5 °F /  1.9 °C 30.40in /  1029.3hPa ESE 0.9mph /  1.4km/h 5mph /  8km/h 95.6% 0.00in /  0mm 0 W/m2
03:24 36.7 °F /  2.6 °C 35.6 °F /  2 °C 30.40in /  1029.3hPa Calm   2mph /  3.2km/h 96% 0.00in /  0mm 0 W/m2
03:29 36.7 °F /  2.6 °C 35.6 °F /  2 °C 30.41in /  1029.7hPa ESE 0.4mph /  0.6km/h 2mph /  3.2km/h 96% 0.00in /  0mm 0 W/m2
03:34 36.7 °F /  2.6 °C 35.6 °F /  2 °C 30.41in /  1029.7hPa ESE 1.2mph /  1.9km/h 2mph /  3.2km/h 95.8% 0.00in /  0mm 0 W/m2
03:39 36.7 °F /  2.6 °C 35.4 °F /  1.9 °C 30.41in /  1029.7hPa ESE 1.1mph /  1.8km/h 3mph /  4.8km/h 95% 0.00in /  0mm 0 W/m2
03:44 36.7 °F /  2.6 °C 35.6 °F /  2 °C 30.41in /  1029.7hPa ESE 1.1mph /  1.8km/h 2mph /  3.2km/h 95.6% 0.00in /  0mm 0 W/m2
03:49 36.7 °F /  2.6 °C 35.6 °F /  2 °C 30.41in /  1029.7hPa ESE 0.5mph /  0.8km/h 2mph /  3.2km/h 96% 0.00in /  0mm 0 W/m2
03:54 36.7 °F /  2.6 °C 35.6 °F /  2 °C 30.41in /  1029.7hPa ESE 1.1mph /  1.8km/h 2mph /  3.2km/h 96% 0.00in /  0mm 0 W/m2
03:59 36.7 °F /  2.6 °C 35.6 °F /  2 °C 30.41in /  1029.7hPa ESE 1.3mph /  2.1km/h 4mph /  6.4km/h 96% 0.00in /  0mm 0 W/m2
04:04 36.9 °F /  2.7 °C 35.8 °F /  2.1 °C 30.41in /  1029.7hPa ESE 1.5mph /  2.4km/h 3mph /  4.8km/h 96% 0.00in /  0mm 0 W/m2
04:09 36.7 °F /  2.6 °C 35.6 °F /  2 °C 30.41in /  1029.7hPa ESE 2.2mph /  3.5km/h 4mph /  6.4km/h 96% 0.00in /  0mm 0 W/m2
04:14 36.7 °F /  2.6 °C 35.6 °F /  2 °C 30.41in /  1029.7hPa ESE 1mph /  1.6km/h 4mph /  6.4km/h 96% 0.00in /  0mm 0 W/m2
04:19 36.7 °F /  2.6 °C 35.6 °F /  2 °C 30.41in /  1029.7hPa ESE 1.5mph /  2.4km/h 4mph /  6.4km/h 96% 0.00in /  0mm 0 W/m2
04:24 36.7 °F /  2.6 °C 35.6 °F /  2 °C 30.41in /  1029.7hPa ESE 2.3mph /  3.7km/h 4mph /  6.4km/h 96% 0.00in /  0mm 0 W/m2
04:29 36.7 °F /  2.6 °C 35.6 °F /  2 °C 30.41in /  1029.7hPa ESE 2.5mph /  4km/h 5mph /  8km/h 96% 0.00in /  0mm 0 W/m2
04:34 36.5 °F /  2.5 °C 35.4 °F /  1.9 °C 30.41in /  1029.7hPa ESE 2.2mph /  3.5km/h 5mph /  8km/h 96% 0.00in /  0mm 0 W/m2
04:39 36.4 °F /  2.4 °C 35.3 °F /  1.8 °C 30.41in /  1029.7hPa ESE 2.3mph /  3.7km/h 5mph /  8km/h 96% 0.00in /  0mm 0 W/m2
04:44 36.3 °F /  2.4 °C 35.2 °F /  1.8 °C 30.41in /  1029.7hPa SE 2.2mph /  3.5km/h 5mph /  8km/h 96% 0.00in /  0mm 0 W/m2
04:49 36.3 °F /  2.4 °C 35.2 °F /  1.8 °C 30.41in /  1029.7hPa SE 1.3mph /  2.1km/h 4mph /  6.4km/h 96% 0.00in /  0mm 0 W/m2
04:54 36.3 °F /  2.4 °C 35.2 °F /  1.8 °C 30.42in /  1030hPa SE 2.2mph /  3.5km/h 4mph /  6.4km/h 96% 0.00in /  0mm 0 W/m2
04:59 36.3 °F /  2.4 °C 35.2 °F /  1.8 °C 30.42in /  1030hPa SE 2.3mph /  3.7km/h 4mph /  6.4km/h 96% 0.00in /  0mm 0 W/m2
05:04 36.3 °F /  2.4 °C 35.2 °F /  1.8 °C 30.42in /  1030hPa SE 0.9mph /  1.4km/h 4mph /  6.4km/h 96% 0.00in /  0mm 0 W/m2
05:09 36.2 °F /  2.3 °C 35.2 °F /  1.8 °C 30.42in /  1030hPa SE 1.6mph /  2.6km/h 3mph /  4.8km/h 96% 0.00in /  0mm 0 W/m2
05:14 36.1 °F /  2.3 °C 35.1 °F /  1.7 °C 30.41in /  1029.7hPa SE 1.2mph /  1.9km/h 3mph /  4.8km/h 96% 0.00in /  0mm 0 W/m2
05:19 36.1 °F /  2.3 °C 35.1 °F /  1.7 °C 30.41in /  1029.7hPa SE 1.2mph /  1.9km/h 4mph /  6.4km/h 96% 0.00in /  0mm 0 W/m2
05:24 36.1 °F /  2.3 °C 35.1 °F /  1.7 °C 30.42in /  1030hPa SE 0.9mph /  1.4km/h 2mph /  3.2km/h 96% 0.00in /  0mm 0 W/m2
05:29 36 °F /  2.2 °C 35 °F /  1.7 °C 30.42in /  1030hPa SE 2mph /  3.2km/h 3mph /  4.8km/h 96% 0.00in /  0mm 0 W/m2
05:34 36 °F /  2.2 °C 35 °F /  1.7 °C 30.42in /  1030hPa SE 1.3mph /  2.1km/h 4mph /  6.4km/h 96% 0.00in /  0mm 0 W/m2
05:39 36 °F /  2.2 °C 34.9 °F /  1.6 °C 30.42in /  1030hPa SE 1.7mph /  2.7km/h 5mph /  8km/h 96% 0.00in /  0mm 0 W/m2
05:44 36 °F /  2.2 °C 34.9 °F /  1.6 °C 30.41in /  1029.7hPa ESE 2.4mph /  3.9km/h 4mph /  6.4km/h 96% 0.00in /  0mm 0 W/m2
05:49 36 °F /  2.2 °C 34.9 °F /  1.6 °C 30.41in /  1029.7hPa ESE 1.6mph /  2.6km/h 4mph /  6.4km/h 96% 0.00in /  0mm 0 W/m2
05:54 36 °F /  2.2 °C 34.9 °F /  1.6 °C 30.41in /  1029.7hPa ESE 2.2mph /  3.5km/h 4mph /  6.4km/h 96% 0.00in /  0mm 0 W/m2
05:59 36.1 °F /  2.3 °C 35 °F /  1.7 °C 30.41in /  1029.7hPa East 1.6mph /  2.6km/h 4mph /  6.4km/h 96% 0.00in /  0mm 0 W/m2
06:04 36.1 °F /  2.3 °C 35.1 °F /  1.7 °C 30.41in /  1029.7hPa ESE 3.3mph /  5.3km/h 6mph /  9.7km/h 96% 0.00in /  0mm 0 W/m2
06:09 36.1 °F /  2.3 °C 35.1 °F /  1.7 °C 30.41in /  1029.7hPa ESE 3.2mph /  5.1km/h 6mph /  9.7km/h 96% 0.00in /  0mm 0 W/m2
06:14 36.1 °F /  2.3 °C 35.1 °F /  1.7 °C 30.42in /  1030hPa ESE 1.2mph /  1.9km/h 4mph /  6.4km/h 96% 0.00in /  0mm 0 W/m2
06:19 36.3 °F /  2.4 °C 35.2 °F /  1.8 °C 30.42in /  1030hPa ESE 2.4mph /  3.9km/h 4mph /  6.4km/h 96% 0.00in /  0mm 0 W/m2
06:24 36.4 °F /  2.4 °C 35.3 °F /  1.8 °C 30.42in /  1030hPa East 2.4mph /  3.9km/h 6mph /  9.7km/h 96% 0.00in /  0mm 0 W/m2
06:29 36.7 °F /  2.6 °C 35.6 °F /  2 °C 30.42in /  1030hPa ENE 3.6mph /  5.8km/h 8mph /  12.9km/h 96% 0.00in /  0mm 0 W/m2
06:34 36.7 °F /  2.6 °C 35.6 °F /  2 °C 30.42in /  1030hPa ENE 1mph /  1.6km/h 3mph /  4.8km/h 96% 0.00in /  0mm 0 W/m2
06:39 36.9 °F /  2.7 °C 35.8 °F /  2.1 °C 30.42in /  1030hPa East 1.6mph /  2.6km/h 4mph /  6.4km/h 96% 0.00in /  0mm 0 W/m2
06:44 36.9 °F /  2.7 °C 35.8 °F /  2.1 °C 30.42in /  1030hPa East 1.9mph /  3.1km/h 4mph /  6.4km/h 96% 0.00in /  0mm 0 W/m2
06:49 37 °F /  2.8 °C 35.9 °F /  2.2 °C 30.42in /  1030hPa ESE 0.5mph /  0.8km/h 4mph /  6.4km/h 96% 0.00in /  0mm 0 W/m2
06:54 37 °F /  2.8 °C 35.9 °F /  2.2 °C 30.42in /  1030hPa ESE 1.7mph /  2.7km/h 3mph /  4.8km/h 96% 0.00in /  0mm 0 W/m2
06:59 37 °F /  2.8 °C 36 °F /  2.2 °C 30.42in /  1030hPa ESE 2.6mph /  4.2km/h 5mph /  8km/h 96% 0.00in /  0mm 0 W/m2
07:04 37 °F /  2.8 °C 36 °F /  2.2 °C 30.42in /  1030hPa East 3.2mph /  5.1km/h 7mph /  11.3km/h 96% 0.00in /  0mm 0 W/m2
07:09 37 °F /  2.8 °C 36 °F /  2.2 °C 30.42in /  1030hPa NE 1.3mph /  2.1km/h 5mph /  8km/h 96% 0.00in /  0mm 0 W/m2
07:14 37.2 °F /  2.9 °C 36.1 °F /  2.3 °C 30.43in /  1030.4hPa NE 1.2mph /  1.9km/h 4mph /  6.4km/h 96% 0.00in /  0mm 0 W/m2
07:19 37.4 °F /  3 °C 36.3 °F /  2.4 °C 30.43in /  1030.4hPa NE 1.2mph /  1.9km/h 4mph /  6.4km/h 96% 0.00in /  0mm 0 W/m2
07:24 38.6 °F /  3.7 °C 37.5 °F /  3.1 °C 30.43in /  1030.4hPa NE 1.5mph /  2.4km/h 3mph /  4.8km/h 96% 0.00in /  0mm 0 W/m2
07:29 39.6 °F /  4.2 °C 38.6 °F /  3.7 °C 30.43in /  1030.4hPa NE 0.4mph /  0.6km/h 2mph /  3.2km/h 96% 0.00in /  0mm 0 W/m2
07:34 39.6 °F /  4.2 °C 38.6 °F /  3.7 °C 30.43in /  1030.4hPa NE 0.9mph /  1.4km/h 2mph /  3.2km/h 96% 0.00in /  0mm 0 W/m2
07:39 38.7 °F /  3.7 °C 37.7 °F /  3.2 °C 30.43in /  1030.4hPa NE 0.5mph /  0.8km/h 2mph /  3.2km/h 96% 0.00in /  0mm 0 W/m2
07:44 37.8 °F /  3.2 °C 36.7 °F /  2.6 °C 30.44in /  1030.7hPa East 1.5mph /  2.4km/h 5mph /  8km/h 96% 0.00in /  0mm 0 W/m2
07:49 37.3 °F /  2.9 °C 36.2 °F /  2.3 °C 30.44in /  1030.7hPa East 0.2mph /  0.3km/h 2mph /  3.2km/h 96% 0.00in /  0mm 0 W/m2
07:54 37.2 °F /  2.9 °C 36.1 °F /  2.3 °C 30.44in /  1030.7hPa Calm   1mph /  1.6km/h 96% 0.00in /  0mm 0 W/m2
07:59 37.2 °F /  2.9 °C 36.1 °F /  2.3 °C 30.44in /  1030.7hPa Calm     96% 0.00in /  0mm 0 W/m2
08:04 37.4 °F /  3 °C 36.3 °F /  2.4 °C 30.44in /  1030.7hPa Calm     96% 0.00in /  0mm 5 W/m2
08:09 37.5 °F /  3.1 °C 36.4 °F /  2.4 °C 30.44in /  1030.7hPa Calm     96% 0.00in /  0mm 5 W/m2
08:14 37.6 °F /  3.1 °C 36.5 °F /  2.5 °C 30.44in /  1030.7hPa Calm     96% 0.00in /  0mm 5 W/m2
08:19 37.6 °F /  3.1 °C 36.5 °F /  2.5 °C 30.45in /  1031hPa Calm     96% 0.00in /  0mm 7 W/m2
08:24 37.4 °F /  3 °C 36.3 °F /  2.4 °C 30.45in /  1031hPa East 1.5mph /  2.4km/h 3mph /  4.8km/h 96% 0.00in /  0mm 11 W/m2
08:29 37.4 °F /  3 °C 36.3 °F /  2.4 °C 30.45in /  1031hPa East 0.7mph /  1.1km/h 2mph /  3.2km/h 96% 0.00in /  0mm 14 W/m2
08:34 37.4 °F /  3 °C 36.3 °F /  2.4 °C 30.44in /  1030.7hPa East 0.4mph /  0.6km/h 3mph /  4.8km/h 96% 0.00in /  0mm 16 W/m2
08:39 37.6 °F /  3.1 °C 36.5 °F /  2.5 °C 30.44in /  1030.7hPa East 1.5mph /  2.4km/h 2mph /  3.2km/h 96% 0.00in /  0mm 18 W/m2
08:44 37.6 °F /  3.1 °C 36.5 °F /  2.5 °C 30.44in /  1030.7hPa East 1.2mph /  1.9km/h 5mph /  8km/h 96% 0.00in /  0mm 18 W/m2
08:49 37.6 °F /  3.1 °C 36.5 °F /  2.5 °C 30.45in /  1031hPa East 2mph /  3.2km/h 3mph /  4.8km/h 96% 0.00in /  0mm 21 W/m2
08:54 37.6 °F /  3.1 °C 36.5 °F /  2.5 °C 30.45in /  1031hPa East 1.3mph /  2.1km/h 4mph /  6.4km/h 96% 0.00in /  0mm 23 W/m2
08:59 37.4 °F /  3 °C 36.3 °F /  2.4 °C 30.45in /  1031hPa SE 1.6mph /  2.6km/h 5mph /  8km/h 96% 0.00in /  0mm 26 W/m2
09:04 37.2 °F /  2.9 °C 36.1 °F /  2.3 °C 30.45in /  1031hPa ESE 2.1mph /  3.4km/h 4mph /  6.4km/h 96% 0.00in /  0mm 26 W/m2
09:09 37.2 °F /  2.9 °C 36.1 °F /  2.3 °C 30.45in /  1031hPa ESE 1mph /  1.6km/h 4mph /  6.4km/h 96% 0.00in /  0mm 30 W/m2
09:14 37.5 °F /  3.1 °C 36.4 °F /  2.4 °C 30.45in /  1031hPa ESE 0.2mph /  0.3km/h 3mph /  4.8km/h 96% 0.00in /  0mm 32 W/m2
09:19 37.6 °F /  3.1 °C 36.6 °F /  2.6 °C 30.45in /  1031hPa ESE 1.7mph /  2.7km/h 4mph /  6.4km/h 96.2% 0.00in /  0mm 33 W/m2
09:24 37.8 °F /  3.2 °C 36.8 °F /  2.7 °C 30.45in /  1031hPa East 1.2mph /  1.9km/h 5mph /  8km/h 96.2% 0.00in /  0mm 39 W/m2
09:29 37.8 °F /  3.2 °C 36.7 °F /  2.6 °C 30.45in /  1031hPa ENE 2.2mph /  3.5km/h 5mph /  8km/h 96% 0.00in /  0mm 42 W/m2
09:34 37.8 °F /  3.2 °C 36.8 °F /  2.7 °C 30.45in /  1031hPa East 0.9mph /  1.4km/h 5mph /  8km/h 96.4% 0.00in /  0mm 53 W/m2
09:39 37.7 °F /  3.2 °C 36.8 °F /  2.7 °C 30.45in /  1031hPa East 0.9mph /  1.4km/h 4mph /  6.4km/h 96.6% 0.00in /  0mm 54 W/m2
09:44 37.6 °F /  3.1 °C 36.7 °F /  2.6 °C 30.45in /  1031hPa ESE 1.9mph /  3.1km/h 4mph /  6.4km/h 96.6% 0.00in /  0mm 56 W/m2
09:49 37.8 °F /  3.2 °C 37 °F /  2.8 °C 30.45in /  1031hPa ESE 2.2mph /  3.5km/h 5mph /  8km/h 97% 0.00in /  0mm 53 W/m2
09:54 37.6 °F /  3.1 °C 36.7 °F /  2.6 °C 30.45in /  1031hPa ESE 1.6mph /  2.6km/h 4mph /  6.4km/h 96.4% 0.00in /  0mm 60 W/m2
09:59 37.8 °F /  3.2 °C 37 °F /  2.8 °C 30.45in /  1031hPa ESE 0.4mph /  0.6km/h 3mph /  4.8km/h 97% 0.00in /  0mm 62 W/m2
10:04 37.8 °F /  3.2 °C 37 °F /  2.8 °C 30.45in /  1031hPa ESE 2.4mph /  3.9km/h 4mph /  6.4km/h 97% 0.00in /  0mm 69 W/m2
10:09 37.8 °F /  3.2 °C 37 °F /  2.8 °C 30.45in /  1031hPa ESE 1.6mph /  2.6km/h 4mph /  6.4km/h 97% 0.00in /  0mm 70 W/m2
10:14 37.9 °F /  3.3 °C 37.1 °F /  2.8 °C 30.45in /  1031hPa ESE 1.3mph /  2.1km/h 3mph /  4.8km/h 96.8% 0.00in /  0mm 69 W/m2
10:19 37.8 °F /  3.2 °C 37 °F /  2.8 °C 30.45in /  1031hPa ESE 2.8mph /  4.5km/h 4mph /  6.4km/h 97% 0.00in /  0mm 74 W/m2
10:24 37.8 °F /  3.2 °C 37 °F /  2.8 °C 30.45in /  1031hPa ESE 1.9mph /  3.1km/h 4mph /  6.4km/h 97% 0.00in /  0mm 74 W/m2
10:29 37.8 °F /  3.2 °C 37 °F /  2.8 °C 30.45in /  1031hPa ESE 2mph /  3.2km/h 5mph /  8km/h 97% 0.00in /  0mm 77 W/m2
10:34 37.9 °F /  3.3 °C 37 °F /  2.8 °C 30.45in /  1031hPa ESE 1.7mph /  2.7km/h 5mph /  8km/h 96.4% 0.00in /  0mm 77 W/m2
10:39 38.2 °F /  3.4 °C 37.2 °F /  2.9 °C 30.44in /  1030.7hPa ESE 2.1mph /  3.4km/h 5mph /  8km/h 96.2% 0.00in /  0mm 81 W/m2
10:44 38.3 °F /  3.5 °C 37.6 °F /  3.1 °C 30.44in /  1030.7hPa ESE 1.7mph /  2.7km/h 4mph /  6.4km/h 97% 0.00in /  0mm 86 W/m2
10:49 38 °F /  3.3 °C 36.9 °F /  2.7 °C 30.44in /  1030.7hPa ESE 2.4mph /  3.9km/h 4mph /  6.4km/h 96% 0.00in /  0mm 81 W/m2
10:54 38 °F /  3.3 °C 36.9 °F /  2.7 °C 30.44in /  1030.7hPa ESE 1.7mph /  2.7km/h 4mph /  6.4km/h 96% 0.00in /  0mm 86 W/m2
10:59 38 °F /  3.3 °C 37 °F /  2.8 °C 30.44in /  1030.7hPa ESE 1.3mph /  2.1km/h 3mph /  4.8km/h 96% 0.00in /  0mm 95 W/m2
11:04 38.1 °F /  3.4 °C 37 °F /  2.8 °C 30.44in /  1030.7hPa ESE 1.7mph /  2.7km/h 4mph /  6.4km/h 96% 0.00in /  0mm 97 W/m2
11:09 38.2 °F /  3.4 °C 37.4 °F /  3 °C 30.44in /  1030.7hPa ESE 2.6mph /  4.2km/h 6mph /  9.7km/h 96.6% 0.00in /  0mm 105 W/m2
11:14 38.5 °F /  3.6 °C 37.8 °F /  3.2 °C 30.44in /  1030.7hPa ESE 3.6mph /  5.8km/h 7mph /  11.3km/h 97% 0.00in /  0mm 93 W/m2
11:19 38.7 °F /  3.7 °C 37.9 °F /  3.3 °C 30.43in /  1030.4hPa ESE 3.1mph /  5km/h 7mph /  11.3km/h 97% 0.00in /  0mm 90 W/m2
11:24 38.8 °F /  3.8 °C 38 °F /  3.3 °C 30.43in /  1030.4hPa East 2.7mph /  4.3km/h 7mph /  11.3km/h 96.8% 0.00in /  0mm 90 W/m2
11:29 38.7 °F /  3.7 °C 38 °F /  3.3 °C 30.43in /  1030.4hPa ESE 2.1mph /  3.4km/h 7mph /  11.3km/h 97% 0.00in /  0mm 91 W/m2
11:34 38.8 °F /  3.8 °C 38.1 °F /  3.4 °C 30.43in /  1030.4hPa ESE 2.4mph /  3.9km/h 6mph /  9.7km/h 97% 0.00in /  0mm 86 W/m2
11:39 38.8 °F /  3.8 °C 38.1 °F /  3.4 °C 30.43in /  1030.4hPa ENE 2mph /  3.2km/h 6mph /  9.7km/h 97% 0.00in /  0mm 88 W/m2
11:44 38.8 °F /  3.8 °C 38.1 °F /  3.4 °C 30.43in /  1030.4hPa NE 2.6mph /  4.2km/h 4mph /  6.4km/h 97% 0.00in /  0mm 91 W/m2
11:49 39 °F /  3.9 °C 38.3 °F /  3.5 °C 30.42in /  1030hPa NE 1.6mph /  2.6km/h 4mph /  6.4km/h 97% 0.00in /  0mm 100 W/m2
11:54 39 °F /  3.9 °C 38.3 °F /  3.5 °C 30.42in /  1030hPa NE 1.8mph /  2.9km/h 4mph /  6.4km/h 97% 0.00in /  0mm 93 W/m2
11:59 39 °F /  3.9 °C 38.3 °F /  3.5 °C 30.42in /  1030hPa NE 1.6mph /  2.6km/h 3mph /  4.8km/h 97% 0.00in /  0mm 84 W/m2
12:04 39 °F /  3.9 °C 38.3 °F /  3.5 °C 30.42in /  1030hPa East 2.5mph /  4km/h 5mph /  8km/h 97% 0.00in /  0mm 76 W/m2
12:09 39.1 °F /  3.9 °C 38.4 °F /  3.6 °C 30.42in /  1030hPa East 1.8mph /  2.9km/h 4mph /  6.4km/h 97% 0.00in /  0mm 74 W/m2
12:14 39.1 °F /  3.9 °C 38.4 °F /  3.6 °C 30.42in /  1030hPa East 0.7mph /  1.1km/h 2mph /  3.2km/h 97% 0.00in /  0mm 84 W/m2
12:19 39 °F /  3.9 °C 38.3 °F /  3.5 °C 30.42in /  1030hPa East 1.6mph /  2.6km/h 3mph /  4.8km/h 97% 0.00in /  0mm 77 W/m2
12:24 39 °F /  3.9 °C 38.3 °F /  3.5 °C 30.42in /  1030hPa East 2.1mph /  3.4km/h 4mph /  6.4km/h 97% 0.00in /  0mm 72 W/m2
12:29 39 °F /  3.9 °C 38.3 °F /  3.5 °C 30.42in /  1030hPa East 0.9mph /  1.4km/h 3mph /  4.8km/h 97% 0.00in /  0mm 74 W/m2
12:34 39 °F /  3.9 °C 38.3 °F /  3.5 °C 30.42in /  1030hPa East 1.1mph /  1.8km/h 3mph /  4.8km/h 97% 0.00in /  0mm 76 W/m2
12:39 38.9 °F /  3.8 °C 38.2 °F /  3.4 °C 30.42in /  1030hPa East 2mph /  3.2km/h 3mph /  4.8km/h 97% 0.00in /  0mm 81 W/m2
12:44 38.8 °F /  3.8 °C 38.1 °F /  3.4 °C 30.42in /  1030hPa East 0.7mph /  1.1km/h 3mph /  4.8km/h 97% 0.00in /  0mm 81 W/m2
12:49 39 °F /  3.9 °C 38.3 °F /  3.5 °C 30.42in /  1030hPa East 2.1mph /  3.4km/h 3mph /  4.8km/h 97% 0.00in /  0mm 97 W/m2
12:54 39.3 °F /  4.1 °C 38.7 °F /  3.7 °C 30.41in /  1029.7hPa East 1mph /  1.6km/h 3mph /  4.8km/h 97% 0.00in /  0mm 97 W/m2
12:59 39.4 °F /  4.1 °C 38.7 °F /  3.7 °C 30.41in /  1029.7hPa East 0.9mph /  1.4km/h 3mph /  4.8km/h 97% 0.00in /  0mm 88 W/m2
13:04 39.5 °F /  4.2 °C 38.8 °F /  3.8 °C 30.41in /  1029.7hPa East 1.6mph /  2.6km/h 3mph /  4.8km/h 97% 0.00in /  0mm 79 W/m2
13:09 39.5 °F /  4.2 °C 38.8 °F /  3.8 °C 30.41in /  1029.7hPa East 1.3mph /  2.1km/h 4mph /  6.4km/h 97% 0.00in /  0mm 79 W/m2
13:14 39.4 °F /  4.1 °C 38.7 °F /  3.7 °C 30.41in /  1029.7hPa East 0.9mph /  1.4km/h 4mph /  6.4km/h 97% 0.00in /  0mm 84 W/m2
13:19 39 °F /  3.9 °C 38.3 °F /  3.5 °C 30.41in /  1029.7hPa East 0.6mph /  1km/h 3mph /  4.8km/h 97% 0.00in /  0mm 84 W/m2
13:24 39.3 °F /  4.1 °C 38.6 °F /  3.7 °C 30.40in /  1029.3hPa East 1.2mph /  1.9km/h 3mph /  4.8km/h 97% 0.00in /  0mm 83 W/m2
13:29 39.4 °F /  4.1 °C 38.7 °F /  3.7 °C 30.40in /  1029.3hPa ENE 2.2mph /  3.5km/h 5mph /  8km/h 97% 0.00in /  0mm 70 W/m2
13:34 39.6 °F /  4.2 °C 38.8 °F /  3.8 °C 30.40in /  1029.3hPa NE 1.1mph /  1.8km/h 4mph /  6.4km/h 97% 0.00in /  0mm 76 W/m2
13:39 39.6 °F /  4.2 °C 38.8 °F /  3.8 °C 30.40in /  1029.3hPa NE 0.8mph /  1.3km/h 3mph /  4.8km/h 97% 0.00in /  0mm 70 W/m2
13:44 39.5 °F /  4.2 °C 38.7 °F /  3.7 °C 30.40in /  1029.3hPa NE 2mph /  3.2km/h 4mph /  6.4km/h 97% 0.00in /  0mm 56 W/m2
13:49 39.6 °F /  4.2 °C 38.8 °F /  3.8 °C 30.40in /  1029.3hPa NE 1.3mph /  2.1km/h 4mph /  6.4km/h 97% 0.00in /  0mm 53 W/m2
13:54 39.6 °F /  4.2 °C 38.8 °F /  3.8 °C 30.41in /  1029.7hPa ENE 2.1mph /  3.4km/h 5mph /  8km/h 97% 0.00in /  0mm 51 W/m2
13:59 39.6 °F /  4.2 °C 38.8 °F /  3.8 °C 30.40in /  1029.3hPa East 2mph /  3.2km/h 4mph /  6.4km/h 97% 0.00in /  0mm 47 W/m2
14:04 39.6 °F /  4.2 °C 38.8 °F /  3.8 °C 30.40in /  1029.3hPa East 0.2mph /  0.3km/h 3mph /  4.8km/h 97% 0.00in /  0mm 46 W/m2
14:09 39.6 °F /  4.2 °C 38.8 °F /  3.8 °C 30.40in /  1029.3hPa East 1.3mph /  2.1km/h 3mph /  4.8km/h 97% 0.00in /  0mm 49 W/m2
14:14 39.6 °F /  4.2 °C 38.8 °F /  3.8 °C 30.40in /  1029.3hPa ENE 2mph /  3.2km/h 3mph /  4.8km/h 97% 0.00in /  0mm 56 W/m2
14:19 39.6 °F /  4.2 °C 38.8 °F /  3.8 °C 30.40in /  1029.3hPa ENE 1.4mph /  2.3km/h 3mph /  4.8km/h 97% 0.00in /  0mm 54 W/m2
14:24 39.3 °F /  4.1 °C 38.6 °F /  3.7 °C 30.40in /  1029.3hPa ENE 0.8mph /  1.3km/h 3mph /  4.8km/h 97% 0.00in /  0mm 46 W/m2
14:29 39 °F /  3.9 °C 38.3 °F /  3.5 °C 30.40in /  1029.3hPa ENE 1.3mph /  2.1km/h 5mph /  8km/h 97% 0.00in /  0mm 47 W/m2
14:34 38.7 °F /  3.7 °C 38 °F /  3.3 °C 30.40in /  1029.3hPa ENE 0.4mph /  0.6km/h 2mph /  3.2km/h 97% 0.00in /  0mm 46 W/m2
14:39 38.7 °F /  3.7 °C 37.9 °F /  3.3 °C 30.40in /  1029.3hPa Calm     97% 0.00in /  0mm 42 W/m2
14:44 38.7 °F /  3.7 °C 37.9 °F /  3.3 °C 30.40in /  1029.3hPa Calm   1mph /  1.6km/h 97% 0.00in /  0mm 44 W/m2
14:49 38.7 °F /  3.7 °C 37.9 °F /  3.3 °C 30.40in /  1029.3hPa ENE 0.4mph /  0.6km/h 2mph /  3.2km/h 97% 0.00in /  0mm 42 W/m2
14:54 38.7 °F /  3.7 °C 37.9 °F /  3.3 °C 30.40in /  1029.3hPa East 1.6mph /  2.6km/h 5mph /  8km/h 97% 0.00in /  0mm 44 W/m2
14:59 38.7 °F /  3.7 °C 37.9 °F /  3.3 °C 30.39in /  1029hPa East 2.4mph /  3.9km/h 5mph /  8km/h 97% 0.00in /  0mm 40 W/m2
15:04 38.5 °F /  3.6 °C 37.8 °F /  3.2 °C 30.40in /  1029.3hPa ESE 1.7mph /  2.7km/h 4mph /  6.4km/h 97% 0.00in /  0mm 32 W/m2
15:09 38.7 °F /  3.7 °C 37.9 °F /  3.3 °C 30.40in /  1029.3hPa ESE 2mph /  3.2km/h 3mph /  4.8km/h 97% 0.00in /  0mm 32 W/m2
15:14 38.3 °F /  3.5 °C 37.6 °F /  3.1 °C 30.40in /  1029.3hPa ESE 1.5mph /  2.4km/h 4mph /  6.4km/h 97% 0.00in /  0mm 26 W/m2
15:19 38.3 °F /  3.5 °C 37.6 °F /  3.1 °C 30.40in /  1029.3hPa ESE 1.8mph /  2.9km/h 4mph /  6.4km/h 97% 0.00in /  0mm 25 W/m2
15:24 38.4 °F /  3.6 °C 37.7 °F /  3.2 °C 30.40in /  1029.3hPa ESE 1.2mph /  1.9km/h 3mph /  4.8km/h 97% 0.00in /  0mm 19 W/m2
15:29 38.3 °F /  3.5 °C 37.6 °F /  3.1 °C 30.40in /  1029.3hPa ESE 0.8mph /  1.3km/h 4mph /  6.4km/h 97% 0.00in /  0mm 18 W/m2
15:34 38.5 °F /  3.6 °C 37.8 °F /  3.2 °C 30.40in /  1029.3hPa ESE 1.1mph /  1.8km/h 4mph /  6.4km/h 97% 0.00in /  0mm 12 W/m2
15:39 38.7 °F /  3.7 °C 37.9 °F /  3.3 °C 30.40in /  1029.3hPa ESE 1.7mph /  2.7km/h 4mph /  6.4km/h 97% 0.00in /  0mm 11 W/m2
15:44 38.7 °F /  3.7 °C 37.9 °F /  3.3 °C 30.40in /  1029.3hPa ESE 0.8mph /  1.3km/h 4mph /  6.4km/h 97% 0.00in /  0mm 7 W/m2
15:49 38.5 °F /  3.6 °C 37.8 °F /  3.2 °C 30.40in /  1029.3hPa ESE 1.5mph /  2.4km/h 3mph /  4.8km/h 97% 0.00in /  0mm 5 W/m2
15:54 38.3 °F /  3.5 °C 37.6 °F /  3.1 °C 30.40in /  1029.3hPa ESE 0.5mph /  0.8km/h 3mph /  4.8km/h 97% 0.00in /  0mm 5 W/m2
15:59 38.3 °F /  3.5 °C 37.6 °F /  3.1 °C 30.40in /  1029.3hPa Calm   1mph /  1.6km/h 97% 0.00in /  0mm 0 W/m2
16:04 38.2 °F /  3.4 °C 37.5 °F /  3.1 °C 30.40in /  1029.3hPa ESE 0.8mph /  1.3km/h 2mph /  3.2km/h 97% 0.00in /  0mm 0 W/m2
16:09 38.1 °F /  3.4 °C 37.4 °F /  3 °C 30.40in /  1029.3hPa ESE 0.9mph /  1.4km/h 3mph /  4.8km/h 97% 0.00in /  0mm 0 W/m2
16:14 37.9 °F /  3.3 °C 37.2 °F /  2.9 °C 30.40in /  1029.3hPa ESE 0.9mph /  1.4km/h 3mph /  4.8km/h 97% 0.00in /  0mm 0 W/m2
16:19 38.1 °F /  3.4 °C 37.4 °F /  3 °C 30.40in /  1029.3hPa ESE 2mph /  3.2km/h 3mph /  4.8km/h 97% 0.00in /  0mm 0 W/m2
16:24 38.1 °F /  3.4 °C 37.4 °F /  3 °C 30.40in /  1029.3hPa ESE 1.2mph /  1.9km/h 3mph /  4.8km/h 97% 0.00in /  0mm 0 W/m2
16:29 38.1 °F /  3.4 °C 37.4 °F /  3 °C 30.40in /  1029.3hPa ESE 2.1mph /  3.4km/h 4mph /  6.4km/h 97% 0.00in /  0mm 0 W/m2
16:34 37.9 °F /  3.3 °C 37.2 °F /  2.9 °C 30.40in /  1029.3hPa ESE 1.5mph /  2.4km/h 4mph /  6.4km/h 97% 0.00in /  0mm 0 W/m2
16:39 37.9 °F /  3.3 °C 37.2 °F /  2.9 °C 30.40in /  1029.3hPa ESE 1.6mph /  2.6km/h 4mph /  6.4km/h 97% 0.00in /  0mm 0 W/m2
16:44 37.8 °F /  3.2 °C 37.1 °F /  2.8 °C 30.40in /  1029.3hPa ESE 1.6mph /  2.6km/h 5mph /  8km/h 97% 0.00in /  0mm 0 W/m2
16:49 37.6 °F /  3.1 °C 36.9 °F /  2.7 °C 30.40in /  1029.3hPa SE 2.7mph /  4.3km/h 4mph /  6.4km/h 97% 0.00in /  0mm 0 W/m2
16:54 37.3 °F /  2.9 °C 36.6 °F /  2.6 °C 30.41in /  1029.7hPa SE 1.7mph /  2.7km/h 4mph /  6.4km/h 97% 0.00in /  0mm 0 W/m2
16:59 37.2 °F /  2.9 °C 36.5 °F /  2.5 °C 30.41in /  1029.7hPa SE 1.2mph /  1.9km/h 3mph /  4.8km/h 97% 0.00in /  0mm 0 W/m2
17:04 37.4 °F /  3 °C 36.7 °F /  2.6 °C 30.41in /  1029.7hPa SE 1.1mph /  1.8km/h 3mph /  4.8km/h 97% 0.00in /  0mm 0 W/m2
17:09 37.2 °F /  2.9 °C 36.5 °F /  2.5 °C 30.41in /  1029.7hPa ESE 1.7mph /  2.7km/h 5mph /  8km/h 97% 0.00in /  0mm 0 W/m2
17:14 37.2 °F /  2.9 °C 36.5 °F /  2.5 °C 30.40in /  1029.3hPa ESE 3.3mph /  5.3km/h 5mph /  8km/h 97% 0.00in /  0mm 0 W/m2
17:19 37 °F /  2.8 °C 36.3 °F /  2.4 °C 30.40in /  1029.3hPa ESE 2.4mph /  3.9km/h 4mph /  6.4km/h 97% 0.00in /  0mm 0 W/m2
17:24 36.9 °F /  2.7 °C 36.2 °F /  2.3 °C 30.41in /  1029.7hPa ESE 1.5mph /  2.4km/h 4mph /  6.4km/h 97% 0.00in /  0mm 0 W/m2
17:29 36.6 °F /  2.6 °C 35.9 °F /  2.2 °C 30.41in /  1029.7hPa ESE 0.8mph /  1.3km/h 2mph /  3.2km/h 97% 0.00in /  0mm 0 W/m2
17:34 36.5 °F /  2.5 °C 35.8 °F /  2.1 °C 30.41in /  1029.7hPa ESE 0.5mph /  0.8km/h 3mph /  4.8km/h 97% 0.00in /  0mm 0 W/m2
17:39 36.4 °F /  2.4 °C 35.7 °F /  2.1 °C 30.41in /  1029.7hPa ESE 0.5mph /  0.8km/h 3mph /  4.8km/h 97% 0.00in /  0mm 0 W/m2
17:44 36.6 °F /  2.6 °C 35.9 °F /  2.2 °C 30.41in /  1029.7hPa ESE 0.6mph /  1km/h 2mph /  3.2km/h 97% 0.00in /  0mm 0 W/m2
17:49 36.7 °F /  2.6 °C 36 °F /  2.2 °C 30.41in /  1029.7hPa ESE 0.9mph /  1.4km/h 2mph /  3.2km/h 97% 0.00in /  0mm 0 W/m2
17:54 36.7 °F /  2.6 °C 36 °F /  2.2 °C 30.41in /  1029.7hPa ESE 1.7mph /  2.7km/h 4mph /  6.4km/h 97% 0.00in /  0mm 0 W/m2
17:59 36.6 °F /  2.6 °C 35.9 °F /  2.2 °C 30.41in /  1029.7hPa East 1.7mph /  2.7km/h 4mph /  6.4km/h 97% 0.00in /  0mm 0 W/m2
18:04 36.4 °F /  2.4 °C 35.7 °F /  2.1 °C 30.41in /  1029.7hPa ENE 2.5mph /  4km/h 6mph /  9.7km/h 97% 0.00in /  0mm 0 W/m2
18:09 36.1 °F /  2.3 °C 35.4 °F /  1.9 °C 30.41in /  1029.7hPa NE 1.9mph /  3.1km/h 4mph /  6.4km/h 97% 0.00in /  0mm 0 W/m2
18:14 36 °F /  2.2 °C 35.2 °F /  1.8 °C 30.41in /  1029.7hPa NE 1.7mph /  2.7km/h 3mph /  4.8km/h 97% 0.00in /  0mm 0 W/m2
18:19 36 °F /  2.2 °C 35.2 °F /  1.8 °C 30.41in /  1029.7hPa NE 2.2mph /  3.5km/h 4mph /  6.4km/h 97% 0.00in /  0mm 0 W/m2
18:24 35.8 °F /  2.1 °C 35.1 °F /  1.7 °C 30.41in /  1029.7hPa NE 2.7mph /  4.3km/h 4mph /  6.4km/h 97% 0.00in /  0mm 0 W/m2
18:29 35.7 °F /  2.1 °C 35 °F /  1.7 °C 30.41in /  1029.7hPa North 2.4mph /  3.9km/h 5mph /  8km/h 97% 0.00in /  0mm 0 W/m2
18:34 35.8 °F /  2.1 °C 35.1 °F /  1.7 °C 30.41in /  1029.7hPa NNE 2.5mph /  4km/h 5mph /  8km/h 97% 0.00in /  0mm 0 W/m2
18:39 35.8 °F /  2.1 °C 35.1 °F /  1.7 °C 30.41in /  1029.7hPa NNE 2.4mph /  3.9km/h 5mph /  8km/h 97% 0.00in /  0mm 0 W/m2
18:44 35.7 °F /  2.1 °C 35 °F /  1.7 °C 30.41in /  1029.7hPa NNE 2.2mph /  3.5km/h 5mph /  8km/h 97% 0.00in /  0mm 0 W/m2
18:49 35.8 °F /  2.1 °C 35.1 °F /  1.7 °C 30.41in /  1029.7hPa NNE 0.9mph /  1.4km/h 4mph /  6.4km/h 97% 0.00in /  0mm 0 W/m2
18:54 35.7 °F /  2.1 °C 35 °F /  1.7 °C 30.41in /  1029.7hPa NNE 1.3mph /  2.1km/h 4mph /  6.4km/h 97% 0.00in /  0mm 0 W/m2
18:59 35.6 °F /  2 °C 34.9 °F /  1.6 °C 30.41in /  1029.7hPa NNE 0.7mph /  1.1km/h 3mph /  4.8km/h 97% 0.00in /  0mm 0 W/m2
19:04 35.6 °F /  2 °C 34.9 °F /  1.6 °C 30.41in /  1029.7hPa NNE 1.2mph /  1.9km/h 4mph /  6.4km/h 97% 0.00in /  0mm 0 W/m2
19:09 35.7 °F /  2.1 °C 35 °F /  1.7 °C 30.41in /  1029.7hPa NNE 0.9mph /  1.4km/h 3mph /  4.8km/h 97% 0.00in /  0mm 0 W/m2
19:14 35.6 °F /  2 °C 34.9 °F /  1.6 °C 30.40in /  1029.3hPa NNE 0.5mph /  0.8km/h 2mph /  3.2km/h 97% 0.00in /  0mm 0 W/m2
19:19 35.6 °F /  2 °C 34.9 °F /  1.6 °C 30.40in /  1029.3hPa NNE 0.4mph /  0.6km/h 2mph /  3.2km/h 97% 0.00in /  0mm 0 W/m2
19:24 35.6 °F /  2 °C 34.9 °F /  1.6 °C 30.41in /  1029.7hPa NE 1.4mph /  2.3km/h 4mph /  6.4km/h 97% 0.00in /  0mm 0 W/m2
19:29 35.4 °F /  1.9 °C 34.7 °F /  1.5 °C 30.41in /  1029.7hPa NE 2.3mph /  3.7km/h 4mph /  6.4km/h 97% 0.00in /  0mm 0 W/m2
19:34 35.1 °F /  1.7 °C 34.4 °F /  1.3 °C 30.41in /  1029.7hPa NE 2.2mph /  3.5km/h 4mph /  6.4km/h 97% 0.00in /  0mm 0 W/m2
19:39 35.1 °F /  1.7 °C 34.3 °F /  1.3 °C 30.41in /  1029.7hPa NE 2mph /  3.2km/h 4mph /  6.4km/h 97% 0.00in /  0mm 0 W/m2
19:44 35.2 °F /  1.8 °C 34.5 °F /  1.4 °C 30.40in /  1029.3hPa NE 0.9mph /  1.4km/h 3mph /  4.8km/h 97% 0.00in /  0mm 0 W/m2
19:49 35.2 °F /  1.8 °C 34.5 °F /  1.4 °C 30.40in /  1029.3hPa NE 1.3mph /  2.1km/h 4mph /  6.4km/h 97% 0.00in /  0mm 0 W/m2
19:54 35.3 °F /  1.8 °C 34.6 °F /  1.4 °C 30.41in /  1029.7hPa NE 2.9mph /  4.7km/h 5mph /  8km/h 97% 0.00in /  0mm 0 W/m2
19:59 35.2 °F /  1.8 °C 34.5 °F /  1.4 °C 30.40in /  1029.3hPa NE 1.2mph /  1.9km/h 4mph /  6.4km/h 97% 0.00in /  0mm 0 W/m2
20:04 35.2 °F /  1.8 °C 34.5 °F /  1.4 °C 30.41in /  1029.7hPa NE 2mph /  3.2km/h 4mph /  6.4km/h 97% 0.00in /  0mm 0 W/m2
20:09 35.2 °F /  1.8 °C 34.5 °F /  1.4 °C 30.41in /  1029.7hPa NE 0.5mph /  0.8km/h 3mph /  4.8km/h 97% 0.00in /  0mm 0 W/m2
20:14 35.2 °F /  1.8 °C 34.5 °F /  1.4 °C 30.41in /  1029.7hPa NE 1.3mph /  2.1km/h 5mph /  8km/h 97% 0.00in /  0mm 0 W/m2
20:19 35.2 °F /  1.8 °C 34.5 °F /  1.4 °C 30.41in /  1029.7hPa East 2.4mph /  3.9km/h 5mph /  8km/h 97% 0.00in /  0mm 0 W/m2
20:24 34.9 °F /  1.6 °C 34.2 °F /  1.2 °C 30.41in /  1029.7hPa East 2.1mph /  3.4km/h 4mph /  6.4km/h 97% 0.00in /  0mm 0 W/m2
20:29 34.5 °F /  1.4 °C 33.8 °F /  1 °C 30.41in /  1029.7hPa ESE 2.4mph /  3.9km/h 4mph /  6.4km/h 97% 0.00in /  0mm 0 W/m2
20:34 34.5 °F /  1.4 °C 33.8 °F /  1 °C 30.41in /  1029.7hPa ESE 1.3mph /  2.1km/h 4mph /  6.4km/h 97% 0.00in /  0mm 0 W/m2
20:39 34.5 °F /  1.4 °C 33.8 °F /  1 °C 30.40in /  1029.3hPa ESE 1.7mph /  2.7km/h 4mph /  6.4km/h 97% 0.00in /  0mm 0 W/m2
20:44 34.8 °F /  1.6 °C 34.1 °F /  1.2 °C 30.40in /  1029.3hPa East 2mph /  3.2km/h 4mph /  6.4km/h 97% 0.00in /  0mm 0 W/m2
20:49 34.8 °F /  1.6 °C 34.1 °F /  1.2 °C 30.40in /  1029.3hPa East 1.8mph /  2.9km/h 3mph /  4.8km/h 97% 0.00in /  0mm 0 W/m2
20:54 34.5 °F /  1.4 °C 33.8 °F /  1 °C 30.41in /  1029.7hPa East 1.2mph /  1.9km/h 4mph /  6.4km/h 97% 0.00in /  0mm 0 W/m2
20:59 34.5 °F /  1.4 °C 33.8 °F /  1 °C 30.41in /  1029.7hPa East 2.3mph /  3.7km/h 4mph /  6.4km/h 97% 0.00in /  0mm 0 W/m2
21:04 34.5 °F /  1.4 °C 33.8 °F /  1 °C 30.41in /  1029.7hPa East 1.5mph /  2.4km/h 3mph /  4.8km/h 97% 0.00in /  0mm 0 W/m2
21:09 34.5 °F /  1.4 °C 33.8 °F /  1 °C 30.41in /  1029.7hPa East 2.3mph /  3.7km/h 4mph /  6.4km/h 97% 0.00in /  0mm 0 W/m2
21:14 34.5 °F /  1.4 °C 33.8 °F /  1 °C 30.41in /  1029.7hPa East 1mph /  1.6km/h 4mph /  6.4km/h 97% 0.00in /  0mm 0 W/m2
21:19 34.5 °F /  1.4 °C 33.8 °F /  1 °C 30.41in /  1029.7hPa East 2mph /  3.2km/h 4mph /  6.4km/h 97% 0.00in /  0mm 0 W/m2
21:24 34.5 °F /  1.4 °C 33.8 °F /  1 °C 30.41in /  1029.7hPa East 0.4mph /  0.6km/h 3mph /  4.8km/h 97% 0.00in /  0mm 0 W/m2
21:29 34.5 °F /  1.4 °C 33.8 °F /  1 °C 30.41in /  1029.7hPa ENE 2.5mph /  4km/h 5mph /  8km/h 97% 0.00in /  0mm 0 W/m2
21:34 34.4 °F /  1.3 °C 33.7 °F /  0.9 °C 30.41in /  1029.7hPa NE 2.9mph /  4.7km/h 5mph /  8km/h 97% 0.00in /  0mm 0 W/m2
21:39 34.2 °F /  1.2 °C 33.5 °F /  0.8 °C 30.41in /  1029.7hPa NE 2.7mph /  4.3km/h 5mph /  8km/h 97% 0.00in /  0mm 0 W/m2
21:44 34.2 °F /  1.2 °C 33.4 °F /  0.8 °C 30.41in /  1029.7hPa NE 1.7mph /  2.7km/h 4mph /  6.4km/h 97% 0.00in /  0mm 0 W/m2
21:49 34.1 °F /  1.2 °C 33.4 °F /  0.8 °C 30.40in /  1029.3hPa NE 0.6mph /  1km/h 2mph /  3.2km/h 97% 0.00in /  0mm 0 W/m2
21:54 34.2 °F /  1.2 °C 33.4 °F /  0.8 °C 30.40in /  1029.3hPa NE 0.2mph /  0.3km/h 2mph /  3.2km/h 97% 0.00in /  0mm 0 W/m2
21:59 34.2 °F /  1.2 °C 33.4 °F /  0.8 °C 30.40in /  1029.3hPa NE 1.7mph /  2.7km/h 3mph /  4.8km/h 97% 0.00in /  0mm 0 W/m2
22:04 34.2 °F /  1.2 °C 33.4 °F /  0.8 °C 30.40in /  1029.3hPa NE 2mph /  3.2km/h 3mph /  4.8km/h 97% 0.00in /  0mm 0 W/m2
22:09 34.2 °F /  1.2 °C 33.4 °F /  0.8 °C 30.40in /  1029.3hPa NE 1.7mph /  2.7km/h 4mph /  6.4km/h 97% 0.00in /  0mm 0 W/m2
22:14 34.2 °F /  1.2 °C 33.4 °F /  0.8 °C 30.40in /  1029.3hPa NE 2.3mph /  3.7km/h 5mph /  8km/h 97% 0.00in /  0mm 0 W/m2
22:19 34 °F /  1.1 °C 33.3 °F /  0.7 °C 30.40in /  1029.3hPa NE 1.5mph /  2.4km/h 5mph /  8km/h 97% 0.00in /  0mm 0 W/m2
22:24 33.7 °F /  0.9 °C 33 °F /  0.6 °C 30.40in /  1029.3hPa NE 1.7mph /  2.7km/h 3mph /  4.8km/h 97% 0.00in /  0mm 0 W/m2
22:29 33.6 °F /  0.9 °C 32.9 °F /  0.5 °C 30.40in /  1029.3hPa NE 0.5mph /  0.8km/h 3mph /  4.8km/h 97% 0.00in /  0mm 0 W/m2
22:34 33.4 °F /  0.8 °C 32.7 °F /  0.4 °C 30.40in /  1029.3hPa NE 0.9mph /  1.4km/h 2mph /  3.2km/h 97% 0.00in /  0mm 0 W/m2
22:39 33.4 °F /  0.8 °C 32.7 °F /  0.4 °C 30.40in /  1029.3hPa NE 0.5mph /  0.8km/h 3mph /  4.8km/h 97% 0.00in /  0mm 0 W/m2
22:44 33.4 °F /  0.8 °C 32.7 °F /  0.4 °C 30.40in /  1029.3hPa NE 0.6mph /  1km/h 2mph /  3.2km/h 97% 0.00in /  0mm 0 W/m2
22:49 33.4 °F /  0.8 °C 32.7 °F /  0.4 °C 30.40in /  1029.3hPa NE 1.3mph /  2.1km/h 3mph /  4.8km/h 97% 0.00in /  0mm 0 W/m2
22:54 33.4 °F /  0.8 °C 32.7 °F /  0.4 °C 30.40in /  1029.3hPa NE 1.2mph /  1.9km/h 2mph /  3.2km/h 97% 0.00in /  0mm 0 W/m2
22:59 33.4 °F /  0.8 °C 32.7 °F /  0.4 °C 30.40in /  1029.3hPa NE 0.8mph /  1.3km/h 3mph /  4.8km/h 97% 0.00in /  0mm 0 W/m2
23:04 33.4 °F /  0.8 °C 32.7 °F /  0.4 °C 30.40in /  1029.3hPa NE 0.9mph /  1.4km/h 3mph /  4.8km/h 97% 0.00in /  0mm 0 W/m2
23:09 33.4 °F /  0.8 °C 32.7 °F /  0.4 °C 30.40in /  1029.3hPa NE 1.6mph /  2.6km/h 3mph /  4.8km/h 97% 0.00in /  0mm 0 W/m2
23:14 33.3 °F /  0.7 °C 32.5 °F /  0.3 °C 30.40in /  1029.3hPa NE 1.5mph /  2.4km/h 4mph /  6.4km/h 97% 0.00in /  0mm 0 W/m2
23:19 33.2 °F /  0.7 °C 32.4 °F /  0.2 °C 30.40in /  1029.3hPa NE 1.3mph /  2.1km/h 4mph /  6.4km/h 97% 0.00in /  0mm 0 W/m2
23:24 33 °F /  0.6 °C 32.3 °F /  0.2 °C 30.40in /  1029.3hPa NE 1.4mph /  2.3km/h 4mph /  6.4km/h 97% 0.00in /  0mm 0 W/m2
23:29 32.8 °F /  0.4 °C 32.2 °F /  0.1 °C 30.40in /  1029.3hPa NE 0.7mph /  1.1km/h 2mph /  3.2km/h 97% 0.00in /  0mm 0 W/m2
23:34 32.8 °F /  0.4 °C 32.1 °F /  0.1 °C 30.40in /  1029.3hPa NE 1.3mph /  2.1km/h 3mph /  4.8km/h 97% 0.00in /  0mm 0 W/m2
23:39 32.9 °F /  0.5 °C 32.2 °F /  0.1 °C 30.40in /  1029.3hPa East 3.4mph /  5.5km/h 6mph /  9.7km/h 97% 0.00in /  0mm 0 W/m2
23:44 32.9 °F /  0.5 °C 32.2 °F /  0.1 °C 30.40in /  1029.3hPa ESE 2.2mph /  3.5km/h 5mph /  8km/h 97% 0.00in /  0mm 0 W/m2
23:49 33 °F /  0.6 °C 32.3 °F /  0.2 °C 30.39in /  1029hPa East 2.4mph /  3.9km/h 8mph /  12.9km/h 97% 0.00in /  0mm 0 W/m2
23:54 33 °F /  0.6 °C 32.3 °F /  0.2 °C 30.40in /  1029.3hPa ENE 2.5mph /  4km/h 8mph /  12.9km/h 97% 0.00in /  0mm 0 W/m2
23:59 32.7 °F /  0.4 °C 32 °F /  0 °C 30.39in /  1029hPa NE 2mph /  3.2km/h 4mph /  6.4km/h 97% 0.00in /  0mm 0 W/m2
Bath Spa Weather
Compliments of Weather Underground - 2 mb